CheckWX is a tool to help pilots better visualize weather data.  It is not intended as a substitute for an official pre-flight weather briefing.

08:16:32 UTC

KOWA METAR
Owatonna Degner Regional Airport
Owatonna, Minnesota, USA
Current

16 mins ago

KOWA 220801Z AUTO 00000KT 7SM SCT095 M12/M13 A3035 RMK AO2
Observed
Feb-22 @ 08:01 UTC
Visibility
7 SM
Flight Rules
VFR
Cloud Levels
  • Scattered at 9,500' AGL
Temperature
-12°C / 10°F
Dewpoint
-13°C / 9°F
Humidity
92%
Altimeter
30.35" Hg
Pressure
1027.82 hPa
Previous

45 mins ago

KOWA 220732Z AUTO 00000KT 7SM BKN095 M12/M13 A3035 RMK AO2
Observed
Feb-22 @ 07:32 UTC
Visibility
7 SM
Flight Rules
VFR
Cloud Levels
  • Broken at 9,500' AGL
Temperature
-12°C / 10°F
Dewpoint
-13°C / 9°F
Humidity
92%
Altimeter
30.35" Hg
Pressure
1027.82 hPa
Previous

59 mins ago

KOWA 220718Z AUTO 00000KT 7SM OVC095 M12/M14 A3035 RMK AO2
Observed
Feb-22 @ 07:18 UTC
Visibility
7 SM
Flight Rules
VFR
Cloud Levels
  • Overcast at 9,500' AGL
Temperature
-12°C / 10°F
Dewpoint
-14°C / 7°F
Humidity
85%
Altimeter
30.35" Hg
Pressure
1027.82 hPa